Killarney, Ireland
Current Conditions -  °F | °C
As of 7:30 PM on Saturday 20 Dec 2014 (Local Time) from EIKY Reporting Station
Broken Clouds Broken Clouds  
Wind Chill: 41°   Ceiling: 3100
Heat Index: 46°   Visibility: 6mi
Dew Point: 41°   Wind: 12mph
Humidity: 81%   Direction: 220°SW
Pressure: 30.42"   Gusts: NA
Location:  52.05°N, 9.52°W
Report Text: EIKY 201930Z 22010KT 9999 SCT026 BKN031 08/05 Q1030
Loading
Personal Weather Stations






























Interactive Weather Map New forecast layout! Learn more

10-Day Weather Forecast

Advertisements
Track Severe Weather on mobile